Denny Creek, Washington
Current Conditions -  °F | °C
As of 2:53 AM on Sunday 23 Nov 2014 (Local Time) from KRNT Reporting Station
Moderate Rain Moderate Rain  
Wind Chill: 44°   Ceiling: 4000
Heat Index: 47°   Visibility: 5mi
Dew Point: 44°   Wind: 6mph
Humidity: 90%   Direction: NA
Pressure: 30.17"   Gusts: NA
Location:  47.4594°N, 121.612°W
Report Text: KRNT 231053Z AUTO VRB05KT 5SM RA BR SCT028 BKN040 OVC050 08/07 A3017 RMK AO2 SLP220 P0003 T00830067
Loading
Personal Weather Stations






























Interactive Weather Map New forecast layout! Learn more

10-Day Weather Forecast

Advertisements
Track Severe Weather on mobile